Time;durP1;ratioP1;P1;durP2;ratioP2;P2;SDS_P1;SDS_P2;PMS_P1;PMS_P2;Temp;Humidity;BMP_temperature;BMP_pressure;BME280_temperature;BME280_humidity;BME280_pressure;Samples;Min_cycle;Max_cycle;Signal;HPM_P1;HPM_P2
2022/04/06 00:01:44;;;;;;;5.33;4.93;;;;;;;;;;5078478;28;24975;-53
2022/04/06 00:04:10;;;;;;;5.63;5.20;;;;;;;;;;5071510;28;24664;-53
2022/04/06 00:06:35;;;;;;;5.53;5.10;;;;;;;;;;5075670;28;25035;-53
2022/04/06 00:09:00;;;;;;;6.00;5.50;;;;;;;;;;5081005;28;24423;-52
2022/04/06 00:11:25;;;;;;;5.77;5.27;;;;;;;;;;5072401;28;25126;-53
2022/04/06 00:13:50;;;;;;;6.97;6.37;;;;;;;;;;5081295;28;24429;-53
2022/04/06 00:16:16;;;;;;;5.50;5.00;;;;;;;;;;5077705;28;24419;-53
2022/04/06 00:18:41;;;;;;;5.80;5.33;;;;;;;;;;5076478;28;24434;-53
2022/04/06 00:21:07;;;;;;;5.60;5.20;;;;;;;;;;5078866;28;24434;-52
2022/04/06 00:23:32;;;;;;;6.07;5.57;;;;;;;;;;5070921;28;24507;-53
2022/04/06 00:25:57;;;;;;;5.70;5.30;;;;;;;;;;5077490;28;24581;-52
2022/04/06 00:28:22;;;;;;;5.70;5.20;;;;;;;;;;5073949;28;24441;-52
2022/04/06 00:30:47;;;;;;;6.17;5.67;;;;;;;;;;5077457;28;24940;-52
2022/04/06 00:33:13;;;;;;;5.68;5.25;;;;;;;;;;5074078;28;24459;-52
2022/04/06 00:35:38;;;;;;;6.00;5.50;;;;;;;;;;5075397;28;24415;-52
2022/04/06 00:38:04;;;;;;;5.80;5.30;;;;;;;;;;5073672;28;24854;-52
2022/04/06 00:40:30;;;;;;;6.30;5.70;;;;;;;;;;5073327;28;24415;-52
2022/04/06 00:42:55;;;;;;;6.22;5.72;;;;;;;;;;5072227;28;24565;-52
2022/04/06 00:45:21;;;;;;;6.40;5.90;;;;;;;;;;5078341;28;24509;-53
2022/04/06 00:47:46;;;;;;;6.27;5.67;;;;;;;;;;5074343;28;24506;-53
2022/04/06 00:50:12;;;;;;;6.30;5.80;;;;;;;;;;5076021;28;24446;-53
2022/04/06 00:52:37;;;;;;;6.70;6.10;;;;;;;;;;5074633;28;24985;-52
2022/04/06 00:55:03;;;;;;;6.57;5.97;;;;;;;;;;5074062;28;24422;-53
2022/04/06 00:57:29;;;;;;;6.80;6.20;;;;;;;;;;5074557;28;24540;-52
2022/04/06 00:59:57;;;;;;;7.07;6.47;;;;;;;;;;5075057;28;24849;-53
2022/04/06 01:02:23;;;;;;;6.68;6.07;;;;;;;;;;5072505;28;25047;-53
2022/04/06 01:04:48;;;;;;;6.57;5.97;;;;;;;;;;5072590;28;24530;-52
2022/04/06 01:07:13;;;;;;;7.33;6.63;;;;;;;;;;5075175;28;24433;-52
2022/04/06 01:09:38;;;;;;;7.47;6.87;;;;;;;;;;5075448;28;24426;-52
2022/04/06 01:12:04;;;;;;;7.27;6.57;;;;;;;;;;5074830;28;24500;-54
2022/04/06 01:14:29;;;;;;;6.77;6.07;;;;;;;;;;5070811;28;24824;-52
2022/04/06 01:17:02;;;;;;;6.60;6.10;;;;;;;;;;5073708;28;24430;-53
2022/04/06 01:19:31;;;;;;;7.13;6.53;;;;;;;;;;5072387;28;24430;-52
2022/04/06 01:21:56;;;;;;;7.15;6.55;;;;;;;;;;5074268;28;24428;-54
2022/04/06 01:24:22;;;;;;;6.67;6.07;;;;;;;;;;5075633;28;24533;-54
2022/04/06 01:26:47;;;;;;;6.90;6.30;;;;;;;;;;5073337;28;24456;-52
2022/04/06 01:29:12;;;;;;;7.60;6.90;;;;;;;;;;5077550;28;24484;-53
2022/04/06 01:31:37;;;;;;;7.10;6.50;;;;;;;;;;5071162;28;24433;-53
2022/04/06 01:34:03;;;;;;;7.70;7.00;;;;;;;;;;5070386;28;24906;-53
2022/04/06 01:36:28;;;;;;;7.95;7.25;;;;;;;;;;5071950;28;24445;-54
2022/04/06 01:38:53;;;;;;;7.90;7.30;;;;;;;;;;5074806;28;24426;-52
2022/04/06 01:41:18;;;;;;;8.02;7.32;;;;;;;;;;5075001;28;24431;-53
2022/04/06 01:43:43;;;;;;;8.10;7.40;;;;;;;;;;5069422;28;24804;-52
2022/04/06 01:46:09;;;;;;;8.17;7.40;;;;;;;;;;5073522;28;25599;-52
2022/04/06 01:52:11;;;;;;;7.50;6.80;;;;;;;;;;5070031;28;25002;-52
2022/04/06 01:54:03;;;;;;;7.05;6.45;;;;;;;;;;5070227;28;24471;-52
2022/04/06 01:56:28;;;;;;;7.83;7.13;;;;;;;;;;5075131;28;24422;-52
2022/04/06 01:58:53;;;;;;;7.53;6.82;;;;;;;;;;5071407;28;24522;-52
2022/04/06 02:01:18;;;;;;;7.40;6.70;;;;;;;;;;5074885;28;24830;-52
2022/04/06 02:03:43;;;;;;;8.73;7.93;;;;;;;;;;5069543;28;24434;-52
2022/04/06 02:06:09;;;;;;;8.50;7.80;;;;;;;;;;5070296;28;24434;-52
2022/04/06 02:08:34;;;;;;;8.88;8.07;;;;;;;;;;5075484;28;24488;-52
2022/04/06 02:10:59;;;;;;;9.98;9.00;;;;;;;;;;5074858;28;24422;-53
2022/04/06 02:13:26;;;;;;;8.45;7.65;;;;;;;;;;5075993;28;24558;-52
2022/04/06 02:15:51;;;;;;;9.57;8.68;;;;;;;;;;5073624;28;24956;-54
2022/04/06 02:18:16;;;;;;;10.10;9.20;;;;;;;;;;5073225;28;24449;-53
2022/04/06 02:20:41;;;;;;;9.88;8.98;;;;;;;;;;5069429;28;24850;-52
2022/04/06 02:23:07;;;;;;;9.17;8.37;;;;;;;;;;5073595;28;24430;-52
2022/04/06 02:25:32;;;;;;;8.97;8.17;;;;;;;;;;5074097;28;24414;-52
2022/04/06 02:27:57;;;;;;;10.27;9.33;;;;;;;;;;5074510;28;24984;-53
2022/04/06 02:30:22;;;;;;;9.97;9.03;;;;;;;;;;5077272;28;24504;-52
2022/04/06 02:32:47;;;;;;;9.70;8.80;;;;;;;;;;5073301;28;25109;-52
2022/04/06 02:35:13;;;;;;;10.33;9.43;;;;;;;;;;5077610;28;24429;-52
2022/04/06 02:37:44;;;;;;;10.40;9.40;;;;;;;;;;5074429;28;24434;-52
2022/04/06 02:40:09;;;;;;;10.50;9.60;;;;;;;;;;5074580;28;24469;-53
2022/04/06 02:42:34;;;;;;;10.40;9.47;;;;;;;;;;5075496;28;24448;-52
2022/04/06 02:45:00;;;;;;;10.67;9.67;;;;;;;;;;5071492;28;24499;-53
2022/04/06 02:47:25;;;;;;;10.00;9.10;;;;;;;;;;5077591;28;24438;-53
2022/04/06 02:49:50;;;;;;;11.25;10.25;;;;;;;;;;5075186;28;24449;-53
2022/04/06 02:52:16;;;;;;;10.25;9.25;;;;;;;;;;5073588;28;24450;-53
2022/04/06 02:54:41;;;;;;;10.60;9.60;;;;;;;;;;5069555;28;24423;-53
2022/04/06 02:57:06;;;;;;;10.57;9.57;;;;;;;;;;5070445;28;24418;-52
2022/04/06 02:59:31;;;;;;;10.43;9.43;;;;;;;;;;5072110;28;24525;-53
2022/04/06 03:01:56;;;;;;;9.80;8.90;;;;;;;;;;5073436;28;24429;-53
2022/04/06 03:04:21;;;;;;;10.10;9.20;;;;;;;;;;5076574;28;24430;-53
2022/04/06 03:06:47;;;;;;;9.63;8.73;;;;;;;;;;5073374;28;24516;-53
2022/04/06 03:09:12;;;;;;;9.73;8.82;;;;;;;;;;5074666;28;24433;-52
2022/04/06 03:11:37;;;;;;;9.30;8.30;;;;;;;;;;5079382;28;24484;-53
2022/04/06 03:14:03;;;;;;;10.32;9.32;;;;;;;;;;5077411;28;24644;-53
2022/04/06 03:16:28;;;;;;;10.27;9.27;;;;;;;;;;5075578;28;24794;-53
2022/04/06 03:18:53;;;;;;;9.50;8.60;;;;;;;;;;5075826;28;24608;-53
2022/04/06 03:21:18;;;;;;;10.50;9.50;;;;;;;;;;5082018;28;24518;-53
2022/04/06 03:23:43;;;;;;;10.23;9.23;;;;;;;;;;5075047;28;24433;-53
2022/04/06 03:26:09;;;;;;;9.80;8.87;;;;;;;;;;5072967;28;25042;-53
2022/04/06 03:28:34;;;;;;;9.70;8.80;;;;;;;;;;5074185;28;25051;-52
2022/04/06 03:30:59;;;;;;;10.00;8.60;;;;;;;;;;5077555;28;24956;-53
2022/04/06 03:33:24;;;;;;;9.40;8.50;;;;;;;;;;5078770;28;24422;-52
2022/04/06 03:35:52;;;;;;;8.80;8.00;;;;;;;;;;5079310;28;21305;-53
2022/04/06 03:38:17;;;;;;;8.65;7.75;;;;;;;;;;5072810;28;24446;-52
2022/04/06 03:40:42;;;;;;;8.80;8.00;;;;;;;;;;5071920;28;24470;-52
2022/04/06 03:43:07;;;;;;;8.70;7.90;;;;;;;;;;5081221;28;24423;-53
2022/04/06 03:45:33;;;;;;;7.78;7.07;;;;;;;;;;5079004;28;24525;-53
2022/04/06 03:47:58;;;;;;;8.40;7.60;;;;;;;;;;5083121;28;24463;-53
2022/04/06 03:50:23;;;;;;;8.40;7.60;;;;;;;;;;5076445;28;24515;-53
2022/04/06 03:52:48;;;;;;;8.38;7.57;;;;;;;;;;5072938;28;24461;-53
2022/04/06 03:55:13;;;;;;;8.48;7.57;;;;;;;;;;5077478;28;24418;-53
2022/04/06 03:57:38;;;;;;;8.80;8.00;;;;;;;;;;5077722;28;24425;-52
2022/04/06 04:00:05;;;;;;;7.70;7.00;;;;;;;;;;5073893;28;24431;-53
2022/04/06 04:02:31;;;;;;;7.70;7.00;;;;;;;;;;5071606;28;24441;-53
2022/04/06 04:04:56;;;;;;;7.45;6.80;;;;;;;;;;5075907;28;24442;-53
2022/04/06 04:07:21;;;;;;;8.02;7.32;;;;;;;;;;5075439;28;25064;-51
2022/04/06 04:09:47;;;;;;;8.20;7.40;;;;;;;;;;5074938;28;24446;-52
2022/04/06 04:12:12;;;;;;;9.00;8.10;;;;;;;;;;5075880;28;24526;-52
2022/04/06 04:14:37;;;;;;;8.03;7.33;;;;;;;;;;5072244;28;24487;-52
2022/04/06 04:17:02;;;;;;;7.85;7.15;;;;;;;;;;5081083;28;24480;-52
2022/04/06 04:19:28;;;;;;;9.40;8.50;;;;;;;;;;5078847;28;24434;-52
2022/04/06 04:21:53;;;;;;;8.90;8.00;;;;;;;;;;5077217;28;24424;-52
2022/04/06 04:24:19;;;;;;;8.68;7.78;;;;;;;;;;5075176;28;24422;-53
2022/04/06 04:26:44;;;;;;;9.57;8.57;;;;;;;;;;5072812;28;24454;-53
2022/04/06 04:29:09;;;;;;;9.45;8.55;;;;;;;;;;5071217;28;24454;-53
2022/04/06 04:31:34;;;;;;;8.47;7.67;;;;;;;;;;5076656;28;24513;-52
2022/04/06 04:34:00;;;;;;;8.90;8.00;;;;;;;;;;5076171;28;24414;-53
2022/04/06 04:36:25;;;;;;;8.80;8.00;;;;;;;;;;5073757;28;24474;-52
2022/04/06 04:38:50;;;;;;;9.07;8.00;;;;;;;;;;5076220;28;24415;-54
2022/04/06 04:41:16;;;;;;;8.70;7.90;;;;;;;;;;5073928;28;24484;-54
2022/04/06 04:43:41;;;;;;;9.05;8.15;;;;;;;;;;5069645;28;24787;-54
2022/04/06 04:46:07;;;;;;;8.60;7.80;;;;;;;;;;5077722;28;24454;-54
2022/04/06 04:48:32;;;;;;;8.37;7.57;;;;;;;;;;5075977;28;24848;-54
2022/04/06 04:50:57;;;;;;;8.60;7.70;;;;;;;;;;5074868;28;24426;-54
2022/04/06 04:53:23;;;;;;;8.70;7.80;;;;;;;;;;5080989;28;24924;-54
2022/04/06 04:55:49;;;;;;;7.82;7.03;;;;;;;;;;5072079;28;24418;-54
2022/04/06 04:58:14;;;;;;;8.87;7.77;;;;;;;;;;5070280;28;24415;-53
2022/04/06 05:00:39;;;;;;;8.55;7.70;;;;;;;;;;5075497;28;25098;-53
2022/04/06 05:03:05;;;;;;;8.07;7.20;;;;;;;;;;5080614;28;24430;-53
2022/04/06 05:05:30;;;;;;;8.60;7.80;;;;;;;;;;5073144;28;24460;-54
2022/04/06 05:07:58;;;;;;;8.03;7.23;;;;;;;;;;5067826;28;24450;-53
2022/04/06 05:10:23;;;;;;;8.32;7.53;;;;;;;;;;5068590;28;25225;-54
2022/04/06 05:12:49;;;;;;;8.50;7.70;;;;;;;;;;5064181;28;24457;-53
2022/04/06 05:15:14;;;;;;;7.70;7.00;;;;;;;;;;5072541;28;24429;-53
2022/04/06 05:17:39;;;;;;;8.17;7.30;;;;;;;;;;5071493;28;24441;-53
2022/04/06 05:20:05;;;;;;;8.30;7.50;;;;;;;;;;5075470;28;24459;-53
2022/04/06 05:22:30;;;;;;;7.40;6.60;;;;;;;;;;5071712;28;24441;-52
2022/04/06 05:24:55;;;;;;;7.40;6.70;;;;;;;;;;5076974;28;24469;-52
2022/04/06 05:27:21;;;;;;;7.80;7.00;;;;;;;;;;5070747;28;24494;-53
2022/04/06 05:29:46;;;;;;;8.07;7.27;;;;;;;;;;5067214;28;24972;-52
2022/04/06 05:32:11;;;;;;;7.93;7.23;;;;;;;;;;5078855;28;24579;-53
2022/04/06 05:34:36;;;;;;;7.60;6.90;;;;;;;;;;5072467;28;24995;-53
2022/04/06 05:37:02;;;;;;;7.65;6.85;;;;;;;;;;5078386;28;24429;-52
2022/04/06 05:39:27;;;;;;;7.00;6.40;;;;;;;;;;5095617;28;24514;-53
2022/04/06 05:41:52;;;;;;;7.60;6.90;;;;;;;;;;5063466;28;24418;-52
2022/04/06 05:44:17;;;;;;;6.90;6.30;;;;;;;;;;5062652;28;24398;-53
2022/04/06 05:46:43;;;;;;;7.60;6.90;;;;;;;;;;5080549;28;24618;-52
2022/04/06 05:49:08;;;;;;;7.03;6.40;;;;;;;;;;5087090;28;24465;-53
2022/04/06 05:51:34;;;;;;;7.90;7.10;;;;;;;;;;5070350;28;24506;-53
2022/04/06 05:54:00;;;;;;;7.75;6.28;;;;;;;;;;5073353;28;24506;-53
2022/04/06 05:56:25;;;;;;;7.75;6.90;;;;;;;;;;5067435;28;24426;-53
2022/04/06 05:58:51;;;;;;;7.18;6.47;;;;;;;;;;5067689;28;24427;-52
2022/04/06 06:01:16;;;;;;;7.43;6.73;;;;;;;;;;5068248;28;24491;-53
2022/04/06 06:03:41;;;;;;;7.15;6.45;;;;;;;;;;5063163;28;24427;-53
2022/04/06 06:06:06;;;;;;;7.97;7.18;;;;;;;;;;5064834;28;24426;-53
2022/04/06 06:08:31;;;;;;;6.97;6.27;;;;;;;;;;5064454;28;24419;-52
2022/04/06 06:10:56;;;;;;;7.40;6.70;;;;;;;;;;5064187;28;24563;-52
2022/04/06 06:13:22;;;;;;;7.82;7.13;;;;;;;;;;5070799;28;24521;-52
2022/04/06 06:15:48;;;;;;;7.20;6.60;;;;;;;;;;5066341;28;24438;-53
2022/04/06 06:18:13;;;;;;;8.97;8.07;;;;;;;;;;5067884;28;24448;-53
2022/04/06 06:20:38;;;;;;;8.63;7.83;;;;;;;;;;5070886;28;24978;-53
2022/04/06 06:23:03;;;;;;;10.27;9.23;;;;;;;;;;5067460;28;24438;-53
2022/04/06 06:25:28;;;;;;;9.27;8.38;;;;;;;;;;5078730;28;25035;-53
2022/04/06 06:27:53;;;;;;;9.60;8.60;;;;;;;;;;5081684;28;24467;-53
2022/04/06 06:30:19;;;;;;;10.50;9.20;;;;;;;;;;5067326;28;24418;-53
2022/04/06 06:32:44;;;;;;;11.73;10.07;;;;;;;;;;5085835;28;25040;-53
2022/04/06 06:35:09;;;;;;;10.67;9.57;;;;;;;;;;5073709;28;24425;-52
2022/04/06 06:37:34;;;;;;;11.17;9.97;;;;;;;;;;5077505;28;24948;-54
2022/04/06 06:40:00;;;;;;;10.13;9.03;;;;;;;;;;5068235;28;24514;-54
2022/04/06 06:42:25;;;;;;;10.47;9.30;;;;;;;;;;5072769;28;25010;-54
2022/04/06 06:44:51;;;;;;;9.87;8.87;;;;;;;;;;5075679;28;24415;-54
2022/04/06 06:47:16;;;;;;;11.10;9.90;;;;;;;;;;5075362;28;24501;-54
2022/04/06 06:49:46;;;;;;;10.82;9.80;;;;;;;;;;5074387;28;24506;-54
2022/04/06 06:52:23;;;;;;;9.70;8.70;;;;;;;;;;5081724;28;24426;-59
2022/04/06 06:54:48;;;;;;;9.50;8.60;;;;;;;;;;5068454;28;24422;-54
2022/04/06 06:57:14;;;;;;;10.30;8.30;;;;;;;;;;5075857;28;24510;-54
2022/04/06 06:59:39;;;;;;;9.20;8.30;;;;;;;;;;5079087;28;24423;-54
2022/04/06 07:02:04;;;;;;;9.40;8.50;;;;;;;;;;5076055;28;24987;-54
2022/04/06 07:04:29;;;;;;;8.98;8.07;;;;;;;;;;5081866;28;25035;-54
2022/04/06 07:06:55;;;;;;;8.65;7.75;;;;;;;;;;5078118;28;24471;-54
2022/04/06 07:09:20;;;;;;;8.27;7.47;;;;;;;;;;5082834;28;24425;-54
2022/04/06 07:11:45;;;;;;;8.32;7.63;;;;;;;;;;5077164;28;25219;-54
2022/04/06 07:14:10;;;;;;;8.48;7.63;;;;;;;;;;5082442;28;24484;-54
2022/04/06 07:16:36;;;;;;;8.38;7.57;;;;;;;;;;5074662;28;24681;-54
2022/04/06 07:19:01;;;;;;;7.95;7.15;;;;;;;;;;5073636;28;24537;-54
2022/04/06 07:21:26;;;;;;;8.03;7.23;;;;;;;;;;5078445;28;24426;-54
2022/04/06 07:23:53;;;;;;;7.63;6.93;;;;;;;;;;5081553;28;24460;-54
2022/04/06 07:26:18;;;;;;;7.50;6.80;;;;;;;;;;5077320;28;24452;-54
2022/04/06 07:28:45;;;;;;;8.52;7.63;;;;;;;;;;5077251;28;24499;-54
2022/04/06 07:31:10;;;;;;;7.20;6.50;;;;;;;;;;5071880;28;24660;-54
2022/04/06 07:33:36;;;;;;;7.78;7.07;;;;;;;;;;5075256;28;24422;-54
2022/04/06 07:36:02;;;;;;;7.32;6.72;;;;;;;;;;5080432;28;24437;-54
2022/04/06 07:38:27;;;;;;;7.60;6.97;;;;;;;;;;5078328;28;24414;-54
2022/04/06 07:40:54;;;;;;;6.97;6.37;;;;;;;;;;5072240;28;25002;-56
2022/04/06 07:43:20;;;;;;;7.55;6.85;;;;;;;;;;5082518;28;24434;-54
2022/04/06 07:45:45;;;;;;;7.10;6.50;;;;;;;;;;5077070;28;25142;-54
2022/04/06 07:48:10;;;;;;;7.10;6.50;;;;;;;;;;5077874;28;24487;-54
2022/04/06 07:50:35;;;;;;;6.50;5.90;;;;;;;;;;5078773;28;24422;-54
2022/04/06 07:53:00;;;;;;;7.23;6.53;;;;;;;;;;5072413;28;24948;-54
2022/04/06 07:55:26;;;;;;;5.90;5.40;;;;;;;;;;5074263;28;24522;-53
2022/04/06 07:57:51;;;;;;;5.93;5.10;;;;;;;;;;5079170;28;24429;-53
2022/04/06 08:00:16;;;;;;;6.13;5.53;;;;;;;;;;5074672;28;24991;-53
2022/04/06 08:02:43;;;;;;;5.10;4.70;;;;;;;;;;5070122;28;24441;-53
2022/04/06 08:05:08;;;;;;;5.30;4.80;;;;;;;;;;5074552;28;24410;-54
2022/04/06 08:07:39;;;;;;;5.47;4.97;;;;;;;;;;5073659;28;24556;-54
2022/04/06 08:10:04;;;;;;;6.32;5.60;;;;;;;;;;5070520;28;24438;-55
2022/04/06 08:12:30;;;;;;;5.80;5.30;;;;;;;;;;5071462;28;24473;-55
2022/04/06 08:14:55;;;;;;;5.40;4.90;;;;;;;;;;5069391;28;25232;-54
2022/04/06 08:17:20;;;;;;;6.00;4.97;;;;;;;;;;5080918;28;25097;-53
2022/04/06 08:19:45;;;;;;;4.60;4.20;;;;;;;;;;5077625;28;24456;-54
2022/04/06 08:22:10;;;;;;;5.00;4.60;;;;;;;;;;5077710;28;24446;-53
2022/04/06 08:24:35;;;;;;;4.60;4.20;;;;;;;;;;5077781;28;24810;-54
2022/04/06 08:27:00;;;;;;;6.18;4.50;;;;;;;;;;5082285;28;24479;-53
2022/04/06 08:29:26;;;;;;;5.33;4.43;;;;;;;;;;5072591;28;25227;-55
2022/04/06 08:31:52;;;;;;;4.53;4.20;;;;;;;;;;5075195;28;24431;-53
2022/04/06 08:34:17;;;;;;;4.20;3.80;;;;;;;;;;5074750;28;24426;-54
2022/04/06 08:36:44;;;;;;;4.40;4.00;;;;;;;;;;5076526;28;24499;-54
2022/04/06 08:39:09;;;;;;;4.90;4.40;;;;;;;;;;5081076;28;24402;-53
2022/04/06 08:41:34;;;;;;;5.00;4.00;;;;;;;;;;5074164;28;24434;-53
2022/04/06 08:44:01;;;;;;;4.10;3.70;;;;;;;;;;5081844;28;24430;-53
2022/04/06 08:46:27;;;;;;;4.20;3.80;;;;;;;;;;5077937;28;24592;-53
2022/04/06 08:48:52;;;;;;;5.80;5.22;;;;;;;;;;5080307;28;24406;-52
2022/04/06 08:51:18;;;;;;;6.23;3.87;;;;;;;;;;5070033;28;24461;-53
2022/04/06 08:53:43;;;;;;;4.35;3.70;;;;;;;;;;5074554;28;24423;-52
2022/04/06 08:56:12;;;;;;;4.78;4.28;;;;;;;;;;5073939;28;24777;-53
2022/04/06 08:58:37;;;;;;;4.28;3.88;;;;;;;;;;5074771;28;24466;-53
2022/04/06 09:01:02;;;;;;;4.53;4.13;;;;;;;;;;5079095;28;24458;-53
2022/04/06 09:03:27;;;;;;;4.82;4.43;;;;;;;;;;5077409;28;24415;-53
2022/04/06 09:06:09;;;;;;;4.30;3.90;;;;;;;;;;5076555;28;24645;-53
2022/04/06 09:08:41;;;;;;;4.00;3.50;;;;;;;;;;5074712;28;24438;-53
2022/04/06 09:11:10;;;;;;;3.65;3.35;;;;;;;;;;5076279;28;24419;-53
2022/04/06 09:13:36;;;;;;;4.85;4.30;;;;;;;;;;5075261;28;24912;-53
2022/04/06 09:16:01;;;;;;;6.20;5.60;;;;;;;;;;5072969;28;24445;-53
2022/04/06 09:18:33;;;;;;;4.97;4.47;;;;;;;;;;5071173;28;24472;-53
2022/04/06 09:21:00;;;;;;;6.03;4.28;;;;;;;;;;5070867;28;25037;-53
2022/04/06 09:23:25;;;;;;;4.70;4.10;;;;;;;;;;5076833;28;24484;-52
2022/04/06 09:25:50;;;;;;;5.85;4.85;;;;;;;;;;5077837;28;24433;-53
2022/04/06 09:28:15;;;;;;;6.55;5.00;;;;;;;;;;5070887;28;24467;-53
2022/04/06 09:30:41;;;;;;;4.50;4.10;;;;;;;;;;5068497;28;24766;-53
2022/04/06 09:33:11;;;;;;;4.72;4.32;;;;;;;;;;5075919;28;25015;-53
2022/04/06 09:35:37;;;;;;;5.38;4.80;;;;;;;;;;5078015;28;24457;-53
2022/04/06 09:38:08;;;;;;;5.60;5.10;;;;;;;;;;5070968;28;24446;-53
2022/04/06 09:40:33;;;;;;;4.90;4.40;;;;;;;;;;5077665;28;24740;-52
2022/04/06 09:42:58;;;;;;;4.30;4.00;;;;;;;;;;5071491;28;25020;-53
2022/04/06 09:48:11;;;;;;;4.60;4.00;;;;;;;;;;5073257;28;24405;-53
2022/04/06 09:50:38;;;;;;;4.60;4.20;;;;;;;;;;5076206;28;24422;-53
2022/04/06 09:53:04;;;;;;;4.50;4.10;;;;;;;;;;5070764;28;24537;-53
2022/04/06 09:55:30;;;;;;;4.97;4.50;;;;;;;;;;5074362;28;24419;-53
2022/04/06 09:57:56;;;;;;;4.70;4.30;;;;;;;;;;5074762;28;24418;-53
2022/04/06 10:00:23;;;;;;;4.32;4.00;;;;;;;;;;5076702;28;24442;-53
2022/04/06 10:03:09;;;;;;;4.60;4.20;;;;;;;;;;5071706;28;24952;-52
2022/04/06 10:05:35;;;;;;;4.60;4.20;;;;;;;;;;5079461;28;24422;-52
2022/04/06 10:08:00;;;;;;;4.00;3.70;;;;;;;;;;5073195;28;24415;-52
2022/04/06 10:10:25;;;;;;;4.00;3.70;;;;;;;;;;5068687;28;24829;-52
2022/04/06 10:12:51;;;;;;;4.43;4.03;;;;;;;;;;5070246;28;24448;-53
2022/04/06 10:15:17;;;;;;;3.97;3.67;;;;;;;;;;5065980;28;24453;-52
2022/04/06 10:17:42;;;;;;;5.20;4.03;;;;;;;;;;5076691;28;24583;-52
2022/04/06 10:20:13;;;;;;;4.60;4.20;;;;;;;;;;5065557;28;24431;-52
2022/04/06 10:22:43;;;;;;;4.25;3.95;;;;;;;;;;5066015;28;24431;-52
2022/04/06 10:25:12;;;;;;;4.40;4.10;;;;;;;;;;5066466;28;24415;-52
2022/04/06 10:27:42;;;;;;;4.60;4.20;;;;;;;;;;5083022;28;24423;-52
2022/04/06 10:30:19;;;;;;;4.50;4.10;;;;;;;;;;5085874;28;24958;-52
2022/04/06 10:32:45;;;;;;;4.97;4.30;;;;;;;;;;5071287;28;24912;-53
2022/04/06 10:35:16;;;;;;;4.60;3.75;;;;;;;;;;5066277;28;24492;-52
2022/04/06 10:38:04;;;;;;;4.38;3.97;;;;;;;;;;5067419;28;24439;-53
2022/04/06 10:40:44;;;;;;;4.93;4.40;;;;;;;;;;5060198;28;24423;-53
2022/04/06 10:43:28;;;;;;;5.37;4.20;;;;;;;;;;5063372;28;24438;-52
2022/04/06 10:45:54;;;;;;;5.03;4.53;;;;;;;;;;5066771;28;24761;-52
2022/04/06 10:48:19;;;;;;;5.32;4.88;;;;;;;;;;5068893;28;24520;-53
2022/04/06 10:50:46;;;;;;;4.30;3.90;;;;;;;;;;5081718;28;24583;-53
2022/04/06 10:53:20;;;;;;;5.00;3.90;;;;;;;;;;5070391;28;24467;-52
2022/04/06 10:55:58;;;;;;;3.90;3.60;;;;;;;;;;5073787;28;25047;-52
2022/04/06 10:58:26;;;;;;;5.15;4.07;;;;;;;;;;5067069;28;24431;-55
2022/04/06 11:01:10;;;;;;;4.50;4.10;;;;;;;;;;5070569;28;24960;-54
2022/04/06 11:03:38;;;;;;;5.10;4.60;;;;;;;;;;5070366;28;24555;-52
2022/04/06 11:06:03;;;;;;;5.90;5.15;;;;;;;;;;5071321;28;24519;-52
2022/04/06 11:11:45;;;;;;;4.28;3.88;;;;;;;;;;5074102;28;24414;-52
2022/04/06 11:14:11;;;;;;;5.18;4.40;;;;;;;;;;5077056;28;24864;-53
2022/04/06 11:16:40;;;;;;;4.30;3.90;;;;;;;;;;5080949;28;24716;-53
2022/04/06 11:19:06;;;;;;;4.18;3.78;;;;;;;;;;5072392;28;24480;-53
2022/04/06 11:21:31;;;;;;;4.20;3.90;;;;;;;;;;5069852;28;24434;-53
2022/04/06 11:23:57;;;;;;;4.72;4.32;;;;;;;;;;5074015;28;25137;-53
2022/04/06 11:26:22;;;;;;;4.47;3.90;;;;;;;;;;5072684;28;24430;-53
2022/04/06 11:28:55;;;;;;;4.87;4.47;;;;;;;;;;5073251;28;24505;-53
2022/04/06 11:31:20;;;;;;;4.35;3.95;;;;;;;;;;5072982;28;24446;-52
2022/04/06 11:33:45;;;;;;;5.20;4.70;;;;;;;;;;5077771;28;24995;-52
2022/04/06 11:36:11;;;;;;;4.77;4.30;;;;;;;;;;5081813;28;24524;-52
2022/04/06 11:38:36;;;;;;;4.80;4.40;;;;;;;;;;5081477;28;24980;-53
2022/04/06 11:41:02;;;;;;;4.20;3.90;;;;;;;;;;5071714;28;24469;-53
2022/04/06 11:43:27;;;;;;;4.95;4.45;;;;;;;;;;5074693;28;24426;-53
2022/04/06 11:45:57;;;;;;;11.30;7.83;;;;;;;;;;5074527;28;24434;-53
2022/04/06 11:48:22;;;;;;;10.10;7.30;;;;;;;;;;5073116;28;24437;-53
2022/04/06 11:50:49;;;;;;;12.43;7.47;;;;;;;;;;5075022;28;25049;-53
2022/04/06 11:53:17;;;;;;;10.00;7.75;;;;;;;;;;5082258;28;24410;-53
2022/04/06 11:55:44;;;;;;;9.37;7.77;;;;;;;;;;5078027;28;24429;-53
2022/04/06 11:58:09;;;;;;;7.07;6.38;;;;;;;;;;5079949;28;24555;-53
2022/04/06 12:00:35;;;;;;;14.50;11.30;;;;;;;;;;5079999;28;24662;-53
2022/04/06 12:03:00;;;;;;;7.30;6.57;;;;;;;;;;5079009;28;24987;-53
2022/04/06 12:05:25;;;;;;;5.30;4.80;;;;;;;;;;5073256;28;24419;-53
2022/04/06 12:08:06;;;;;;;4.70;4.30;;;;;;;;;;5074531;28;24422;-53
2022/04/06 12:10:31;;;;;;;4.88;4.47;;;;;;;;;;5075733;28;24425;-53
2022/04/06 12:12:57;;;;;;;6.30;4.60;;;;;;;;;;5079236;28;24430;-53
2022/04/06 12:15:22;;;;;;;4.70;4.30;;;;;;;;;;5079140;28;24994;-53
2022/04/06 12:17:48;;;;;;;4.80;4.40;;;;;;;;;;5078535;28;24430;-54
2022/04/06 12:20:26;;;;;;;5.53;5.03;;;;;;;;;;5080896;28;24439;-53
2022/04/06 12:23:00;;;;;;;5.95;4.95;;;;;;;;;;5076088;28;24438;-52
2022/04/06 12:25:29;;;;;;;5.40;4.90;;;;;;;;;;5069776;28;24419;-53
2022/04/06 12:28:13;;;;;;;4.77;4.30;;;;;;;;;;5076172;28;24921;-52
2022/04/06 12:30:57;;;;;;;4.88;4.57;;;;;;;;;;5077143;28;24418;-53
2022/04/06 12:33:41;;;;;;;5.20;4.20;;;;;;;;;;5070285;28;24558;-53
2022/04/06 12:36:12;;;;;;;5.03;4.63;;;;;;;;;;5080049;28;24549;-53
2022/04/06 12:38:39;;;;;;;4.97;4.57;;;;;;;;;;5074218;28;24430;-53
2022/04/06 12:41:04;;;;;;;5.40;4.57;;;;;;;;;;5072009;28;24465;-53
2022/04/06 12:43:29;;;;;;;5.10;4.70;;;;;;;;;;5079796;28;24471;-51
2022/04/06 12:45:54;;;;;;;5.27;4.87;;;;;;;;;;5073425;28;24894;-53
2022/04/06 12:48:19;;;;;;;5.57;5.07;;;;;;;;;;5080416;28;24811;-53
2022/04/06 12:50:44;;;;;;;4.43;4.13;;;;;;;;;;5078524;28;24968;-53
2022/04/06 12:53:12;;;;;;;4.30;4.00;;;;;;;;;;5071612;28;24568;-53
2022/04/06 12:55:37;;;;;;;4.40;4.10;;;;;;;;;;5072191;28;24792;-53
2022/04/06 12:58:15;;;;;;;6.10;5.60;;;;;;;;;;5069250;28;24973;-53
2022/04/06 13:00:40;;;;;;;4.53;4.22;;;;;;;;;;5072851;28;24903;-53
2022/04/06 13:03:05;;;;;;;5.00;4.60;;;;;;;;;;5070345;28;24824;-53
2022/04/06 13:05:31;;;;;;;5.50;4.93;;;;;;;;;;5068313;28;25017;-53
2022/04/06 13:07:56;;;;;;;5.60;5.10;;;;;;;;;;5072690;28;24474;-53
2022/04/06 13:10:28;;;;;;;5.00;4.60;;;;;;;;;;5065256;28;24567;-53
2022/04/06 13:12:53;;;;;;;5.30;4.90;;;;;;;;;;5076696;28;24418;-53
2022/04/06 13:15:19;;;;;;;5.00;4.60;;;;;;;;;;5069352;28;24504;-53
2022/04/06 13:17:45;;;;;;;5.60;5.10;;;;;;;;;;5075644;28;25012;-53
2022/04/06 13:20:12;;;;;;;5.20;4.80;;;;;;;;;;5073002;28;24441;-54
2022/04/06 13:22:38;;;;;;;5.00;4.60;;;;;;;;;;5074867;28;24855;-54
2022/04/06 13:25:06;;;;;;;5.30;4.80;;;;;;;;;;5080332;28;24417;-54
2022/04/06 13:27:32;;;;;;;5.60;4.82;;;;;;;;;;5073879;28;24505;-54
2022/04/06 13:29:59;;;;;;;5.60;5.10;;;;;;;;;;5070846;28;24809;-53
2022/04/06 13:32:24;;;;;;;4.95;4.50;;;;;;;;;;5075864;28;24421;-54
2022/04/06 13:34:49;;;;;;;5.20;4.73;;;;;;;;;;5078451;28;24497;-53
2022/04/06 13:37:16;;;;;;;4.85;4.45;;;;;;;;;;5069149;28;24576;-54
2022/04/06 13:39:42;;;;;;;5.60;5.10;;;;;;;;;;5073712;28;24472;-54
2022/04/06 13:42:08;;;;;;;4.67;4.00;;;;;;;;;;5073444;28;24480;-54
2022/04/06 13:44:34;;;;;;;3.85;3.55;;;;;;;;;;5074383;28;24478;-55
2022/04/06 13:46:59;;;;;;;3.50;3.20;;;;;;;;;;5075837;28;24507;-54
2022/04/06 13:49:25;;;;;;;5.00;4.60;;;;;;;;;;5079395;28;24472;-54
2022/04/06 13:51:51;;;;;;;4.70;4.30;;;;;;;;;;5076564;28;24973;-54
2022/04/06 13:54:19;;;;;;;4.28;3.97;;;;;;;;;;5083374;28;25200;-53
2022/04/06 13:56:45;;;;;;;4.10;3.65;;;;;;;;;;5071432;28;24435;-54
2022/04/06 13:59:11;;;;;;;4.50;4.10;;;;;;;;;;5075720;28;24441;-54
2022/04/06 14:01:36;;;;;;;4.90;4.50;;;;;;;;;;5069057;28;24521;-53
2022/04/06 14:04:02;;;;;;;5.00;4.60;;;;;;;;;;5070887;28;24530;-53
2022/04/06 14:06:27;;;;;;;4.60;4.20;;;;;;;;;;5082716;28;24429;-53
2022/04/06 14:08:52;;;;;;;4.00;3.70;;;;;;;;;;5094227;28;25052;-53
2022/04/06 14:11:17;;;;;;;4.60;4.20;;;;;;;;;;5081777;28;25094;-54
2022/04/06 14:13:43;;;;;;;4.33;3.93;;;;;;;;;;5080535;28;24492;-52
2022/04/06 14:16:09;;;;;;;4.00;3.70;;;;;;;;;;5087235;28;24458;-53
2022/04/06 14:18:35;;;;;;;4.38;3.97;;;;;;;;;;5063218;28;24460;-53
2022/04/06 14:21:00;;;;;;;3.70;3.40;;;;;;;;;;5072156;28;24419;-54
2022/04/06 14:23:26;;;;;;;4.37;3.60;;;;;;;;;;5064996;28;24442;-54
2022/04/06 14:25:51;;;;;;;4.60;3.70;;;;;;;;;;5063567;28;24509;-54
2022/04/06 14:28:16;;;;;;;4.50;4.10;;;;;;;;;;5077451;28;24830;-54
2022/04/06 14:30:48;;;;;;;4.27;3.97;;;;;;;;;;5084526;28;24450;-54
2022/04/06 14:33:14;;;;;;;3.80;3.50;;;;;;;;;;5063651;28;24469;-54
2022/04/06 14:35:40;;;;;;;4.30;4.00;;;;;;;;;;5075540;28;24434;-54
2022/04/06 14:38:05;;;;;;;4.10;3.80;;;;;;;;;;5082728;28;24506;-53
2022/04/06 14:40:30;;;;;;;3.90;3.50;;;;;;;;;;5069324;28;24506;-54
2022/04/06 14:42:55;;;;;;;3.90;3.60;;;;;;;;;;5083609;28;24989;-54
2022/04/06 14:45:21;;;;;;;4.90;4.50;;;;;;;;;;5087361;28;24408;-54